Palmdale Regional/USAF Plant 42 Airport
KPMD : now visible

Airfield :











YOU CAN JOIN US ON...

 
LOGIN :

Register | Disclaimer

   EN    FR    IT 

 









Legend :    VFR   Marginal VFR   IFR   Intensive IFR   Very Intensive IFR
Visi :
Ceiling :
>= 8 km
>= 3000ft
5 to 8 km
1000 to 3000 ft
1500m to 5 km
500 to 1000 ft
800 to 1500m
200 to 500 ft
< 800m
< 200 ft
Symbols :   Thunderstorms  Fog  Heavy snow  Heavy precipitations  Wind > 20 kt






- Airport Elevation : 2543 ft
- IATA code : PMD


KPMD - Palmdale Regional/USAF Plant 42

CURRENT METAR :
  • 141353Z 00000KT 10SM CLR 13/M08 A3007 RMK AO2 SLP168 T01331078

EXPIRED METARs :
  • 141253Z AUTO 26007KT 10SM CLR 16/M10 A3006 RMK AO2 SLP160 T01611100
  • 141153Z AUTO 00000KT 10SM CLR 17/M11 A3004 RMK AO2 SLP153 T01721111 10194 20150 58001

TAF KPMD
Valid from the 14 at 12:00 until the 15 at 12:00 UTC


141139Z 1412/1512 22008KT P6SM BKN200
FM141400 VRB04KT P6SM BKN200
FM142100 25012KT P6SM BKN200
FM150700 25006KT P6SM SCT200



MET'MAP, your aeronautical weather chart ! - Copyright ORBIFLY December 2007 - Disclaimer

ORBIFLY MET'MAP TEAM :

Programming & Development : Alexandra Zaïnal
Concept & Development : Baudouin d'Aumeries
Co-Development & Prog : Marc-Olivier Méhu
Technical & hardware support : Manuel Goepfert

Contact : metmap@orbifly.com




SOURCES & CREDITS :

   NOAA       Earth
Advisory